sensor_id;sensor_type;location;lat;lon;timestamp;temperature;humidity
19552;DHT22;9921;47.186;9.778;2022-12-07T00:00:51;-1.10;99.90
19552;DHT22;9921;47.186;9.778;2022-12-07T00:03:18;-1.10;99.90
19552;DHT22;9921;47.186;9.778;2022-12-07T00:05:45;-1.00;99.90
19552;DHT22;9921;47.186;9.778;2022-12-07T00:08:11;-1.00;99.90
19552;DHT22;9921;47.186;9.778;2022-12-07T00:10:38;-1.00;99.90
19552;DHT22;9921;47.186;9.778;2022-12-07T00:13:05;-1.00;99.90
19552;DHT22;9921;47.186;9.778;2022-12-07T00:15:33;-1.10;99.90
19552;DHT22;9921;47.186;9.778;2022-12-07T00:18:02;-1.00;99.90
19552;DHT22;9921;47.186;9.778;2022-12-07T00:20:29;-0.90;99.90
19552;DHT22;9921;47.186;9.778;2022-12-07T00:22:56;-0.80;99.90
19552;DHT22;9921;47.186;9.778;2022-12-07T00:25:23;-0.80;99.90
19552;DHT22;9921;47.186;9.778;2022-12-07T00:27:51;-0.70;99.90
19552;DHT22;9921;47.186;9.778;2022-12-07T00:30:18;-0.70;99.90
19552;DHT22;9921;47.186;9.778;2022-12-07T00:32:45;-0.60;99.90
19552;DHT22;9921;47.186;9.778;2022-12-07T00:35:13;-0.60;99.90
19552;DHT22;9921;47.186;9.778;2022-12-07T00:37:40;-0.60;99.90
19552;DHT22;9921;47.186;9.778;2022-12-07T00:40:08;-0.60;99.90
19552;DHT22;9921;47.186;9.778;2022-12-07T00:42:35;-0.60;99.90
19552;DHT22;9921;47.186;9.778;2022-12-07T00:45:02;-0.50;99.90
19552;DHT22;9921;47.186;9.778;2022-12-07T00:47:29;-0.50;99.90
19552;DHT22;9921;47.186;9.778;2022-12-07T00:49:56;-0.40;99.90
19552;DHT22;9921;47.186;9.778;2022-12-07T00:52:24;-0.40;99.90
19552;DHT22;9921;47.186;9.778;2022-12-07T00:54:51;-0.40;99.90
19552;DHT22;9921;47.186;9.778;2022-12-07T00:57:18;-0.30;99.90
19552;DHT22;9921;47.186;9.778;2022-12-07T00:59:45;-0.30;99.90
19552;DHT22;9921;47.186;9.778;2022-12-07T01:02:12;-0.30;99.90
19552;DHT22;9921;47.186;9.778;2022-12-07T01:04:39;-0.20;99.90
19552;DHT22;9921;47.186;9.778;2022-12-07T01:07:05;-0.20;99.90
19552;DHT22;9921;47.186;9.778;2022-12-07T01:09:34;-0.20;99.90
19552;DHT22;9921;47.186;9.778;2022-12-07T01:12:01;-0.30;99.90
19552;DHT22;9921;47.186;9.778;2022-12-07T01:14:28;-0.20;99.90
19552;DHT22;9921;47.186;9.778;2022-12-07T01:16:55;-0.20;99.90
19552;DHT22;9921;47.186;9.778;2022-12-07T01:19:22;-0.20;99.90
19552;DHT22;9921;47.186;9.778;2022-12-07T01:21:49;-0.10;99.90
19552;DHT22;9921;47.186;9.778;2022-12-07T01:24:16;-0.10;99.90
19552;DHT22;9921;47.186;9.778;2022-12-07T01:26:44;-0.20;99.90
19552;DHT22;9921;47.186;9.778;2022-12-07T01:29:11;-0.10;99.90
19552;DHT22;9921;47.186;9.778;2022-12-07T01:31:38;-0.10;99.90
19552;DHT22;9921;47.186;9.778;2022-12-07T01:34:05;0.00;99.90
19552;DHT22;9921;47.186;9.778;2022-12-07T01:36:34;0.10;99.90
19552;DHT22;9921;47.186;9.778;2022-12-07T01:39:03;0.10;99.90
19552;DHT22;9921;47.186;9.778;2022-12-07T01:41:32;0.10;99.90
19552;DHT22;9921;47.186;9.778;2022-12-07T01:44:13;0.10;99.90
19552;DHT22;9921;47.186;9.778;2022-12-07T01:46:42;0.10;99.90
19552;DHT22;9921;47.186;9.778;2022-12-07T01:49:14;0.10;99.90
19552;DHT22;9921;47.186;9.778;2022-12-07T01:51:43;0.10;99.90
19552;DHT22;9921;47.186;9.778;2022-12-07T01:54:12;0.10;99.90
19552;DHT22;9921;47.186;9.778;2022-12-07T01:56:44;0.10;99.90
19552;DHT22;9921;47.186;9.778;2022-12-07T01:59:13;0.10;99.90
19552;DHT22;9921;47.186;9.778;2022-12-07T02:01:41;0.10;99.90
19552;DHT22;9921;47.186;9.778;2022-12-07T02:04:08;0.20;99.90
19552;DHT22;9921;47.186;9.778;2022-12-07T02:06:36;0.20;99.90
19552;DHT22;9921;47.186;9.778;2022-12-07T02:09:03;0.20;99.90
19552;DHT22;9921;47.186;9.778;2022-12-07T02:11:30;0.20;99.90
19552;DHT22;9921;47.186;9.778;2022-12-07T02:13:57;0.20;99.90
19552;DHT22;9921;47.186;9.778;2022-12-07T02:16:33;0.30;99.90
19552;DHT22;9921;47.186;9.778;2022-12-07T02:19:39;0.30;99.90
19552;DHT22;9921;47.186;9.778;2022-12-07T02:22:24;0.30;99.90
19552;DHT22;9921;47.186;9.778;2022-12-07T02:24:58;0.30;99.90
19552;DHT22;9921;47.186;9.778;2022-12-07T02:27:45;0.30;99.90
19552;DHT22;9921;47.186;9.778;2022-12-07T02:30:14;0.30;99.90
19552;DHT22;9921;47.186;9.778;2022-12-07T02:32:47;0.30;99.90
19552;DHT22;9921;47.186;9.778;2022-12-07T02:35:18;0.30;99.90
19552;DHT22;9921;47.186;9.778;2022-12-07T02:37:57;0.20;99.90
19552;DHT22;9921;47.186;9.778;2022-12-07T02:40:29;0.20;99.90
19552;DHT22;9921;47.186;9.778;2022-12-07T02:43:02;0.20;99.90
19552;DHT22;9921;47.186;9.778;2022-12-07T02:45:34;0.30;99.90
19552;DHT22;9921;47.186;9.778;2022-12-07T02:48:02;0.30;99.90
19552;DHT22;9921;47.186;9.778;2022-12-07T02:50:29;0.30;99.90
19552;DHT22;9921;47.186;9.778;2022-12-07T02:52:56;0.40;99.90
19552;DHT22;9921;47.186;9.778;2022-12-07T02:55:27;0.30;99.90
19552;DHT22;9921;47.186;9.778;2022-12-07T02:58:20;0.30;99.90
19552;DHT22;9921;47.186;9.778;2022-12-07T03:00:57;0.40;99.90
19552;DHT22;9921;47.186;9.778;2022-12-07T03:03:28;0.50;99.90
19552;DHT22;9921;47.186;9.778;2022-12-07T03:06:09;0.50;99.90
19552;DHT22;9921;47.186;9.778;2022-12-07T03:08:45;0.50;99.90
19552;DHT22;9921;47.186;9.778;2022-12-07T03:11:15;0.50;99.90
19552;DHT22;9921;47.186;9.778;2022-12-07T03:13:47;0.50;99.90
19552;DHT22;9921;47.186;9.778;2022-12-07T03:16:19;0.50;99.90
19552;DHT22;9921;47.186;9.778;2022-12-07T03:18:50;0.60;99.90
19552;DHT22;9921;47.186;9.778;2022-12-07T03:21:21;0.60;99.90
19552;DHT22;9921;47.186;9.778;2022-12-07T03:23:54;0.60;99.90
19552;DHT22;9921;47.186;9.778;2022-12-07T03:26:26;0.60;99.90
19552;DHT22;9921;47.186;9.778;2022-12-07T03:29:00;0.50;99.90
19552;DHT22;9921;47.186;9.778;2022-12-07T03:31:32;0.60;99.90
19552;DHT22;9921;47.186;9.778;2022-12-07T03:34:02;0.60;99.90
19552;DHT22;9921;47.186;9.778;2022-12-07T03:36:32;0.70;99.90
19552;DHT22;9921;47.186;9.778;2022-12-07T03:39:06;0.70;99.90
19552;DHT22;9921;47.186;9.778;2022-12-07T03:41:36;0.70;99.90
19552;DHT22;9921;47.186;9.778;2022-12-07T03:44:04;0.70;99.90
19552;DHT22;9921;47.186;9.778;2022-12-07T03:46:37;0.50;99.90
19552;DHT22;9921;47.186;9.778;2022-12-07T03:49:13;0.50;99.90
19552;DHT22;9921;47.186;9.778;2022-12-07T03:51:47;0.50;99.90
19552;DHT22;9921;47.186;9.778;2022-12-07T03:54:19;0.50;99.90
19552;DHT22;9921;47.186;9.778;2022-12-07T03:56:48;0.50;99.90
19552;DHT22;9921;47.186;9.778;2022-12-07T03:59:16;0.50;99.90
19552;DHT22;9921;47.186;9.778;2022-12-07T04:01:50;0.40;99.90
19552;DHT22;9921;47.186;9.778;2022-12-07T04:04:18;0.30;99.90
19552;DHT22;9921;47.186;9.778;2022-12-07T04:06:45;0.40;99.90
19552;DHT22;9921;47.186;9.778;2022-12-07T04:09:12;0.50;99.90
19552;DHT22;9921;47.186;9.778;2022-12-07T04:11:40;0.50;99.90
19552;DHT22;9921;47.186;9.778;2022-12-07T04:14:06;0.50;99.90
19552;DHT22;9921;47.186;9.778;2022-12-07T04:16:47;0.60;99.90
19552;DHT22;9921;47.186;9.778;2022-12-07T04:19:15;0.60;99.90
19552;DHT22;9921;47.186;9.778;2022-12-07T04:21:42;0.70;99.90
19552;DHT22;9921;47.186;9.778;2022-12-07T04:24:09;0.70;99.90
19552;DHT22;9921;47.186;9.778;2022-12-07T04:26:36;0.70;99.90
19552;DHT22;9921;47.186;9.778;2022-12-07T04:29:03;0.70;99.90
19552;DHT22;9921;47.186;9.778;2022-12-07T04:31:30;0.70;99.90
19552;DHT22;9921;47.186;9.778;2022-12-07T04:33:58;0.70;99.90
19552;DHT22;9921;47.186;9.778;2022-12-07T04:36:25;0.70;99.90
19552;DHT22;9921;47.186;9.778;2022-12-07T04:38:53;0.70;99.90
19552;DHT22;9921;47.186;9.778;2022-12-07T04:41:20;0.70;99.90
19552;DHT22;9921;47.186;9.778;2022-12-07T04:43:53;0.60;99.90
19552;DHT22;9921;47.186;9.778;2022-12-07T04:46:21;0.50;99.90
19552;DHT22;9921;47.186;9.778;2022-12-07T04:48:48;0.50;99.90
19552;DHT22;9921;47.186;9.778;2022-12-07T04:51:19;0.50;99.90
19552;DHT22;9921;47.186;9.778;2022-12-07T04:53:46;0.50;99.90
19552;DHT22;9921;47.186;9.778;2022-12-07T04:56:13;0.40;99.90
19552;DHT22;9921;47.186;9.778;2022-12-07T04:58:40;0.50;99.90
19552;DHT22;9921;47.186;9.778;2022-12-07T05:01:08;0.60;99.90
19552;DHT22;9921;47.186;9.778;2022-12-07T05:03:36;0.60;99.90
19552;DHT22;9921;47.186;9.778;2022-12-07T05:06:03;0.70;99.90
19552;DHT22;9921;47.186;9.778;2022-12-07T05:08:32;0.70;99.90
19552;DHT22;9921;47.186;9.778;2022-12-07T05:10:59;0.80;99.90
19552;DHT22;9921;47.186;9.778;2022-12-07T05:13:26;0.80;99.90
19552;DHT22;9921;47.186;9.778;2022-12-07T05:15:52;0.90;99.90
19552;DHT22;9921;47.186;9.778;2022-12-07T05:18:19;0.90;99.90
19552;DHT22;9921;47.186;9.778;2022-12-07T05:20:46;0.90;99.90
19552;DHT22;9921;47.186;9.778;2022-12-07T05:23:13;0.90;99.90
19552;DHT22;9921;47.186;9.778;2022-12-07T05:25:41;0.90;99.90
19552;DHT22;9921;47.186;9.778;2022-12-07T05:28:09;0.90;99.90
19552;DHT22;9921;47.186;9.778;2022-12-07T05:30:36;0.90;99.90
19552;DHT22;9921;47.186;9.778;2022-12-07T05:33:03;0.90;99.90
19552;DHT22;9921;47.186;9.778;2022-12-07T05:35:30;0.90;99.90
19552;DHT22;9921;47.186;9.778;2022-12-07T05:37:57;0.90;99.90
19552;DHT22;9921;47.186;9.778;2022-12-07T05:40:24;0.90;99.90
19552;DHT22;9921;47.186;9.778;2022-12-07T05:42:52;0.90;99.90
19552;DHT22;9921;47.186;9.778;2022-12-07T05:45:19;0.90;99.90
19552;DHT22;9921;47.186;9.778;2022-12-07T05:47:46;0.80;99.90
19552;DHT22;9921;47.186;9.778;2022-12-07T05:50:13;0.80;99.90
19552;DHT22;9921;47.186;9.778;2022-12-07T05:52:40;0.80;99.90
19552;DHT22;9921;47.186;9.778;2022-12-07T05:55:07;0.90;99.90
19552;DHT22;9921;47.186;9.778;2022-12-07T05:57:34;0.90;99.90
19552;DHT22;9921;47.186;9.778;2022-12-07T06:00:03;0.90;99.90
19552;DHT22;9921;47.186;9.778;2022-12-07T06:02:29;0.90;99.90
19552;DHT22;9921;47.186;9.778;2022-12-07T06:04:56;0.80;99.90
19552;DHT22;9921;47.186;9.778;2022-12-07T06:07:22;0.90;99.90
19552;DHT22;9921;47.186;9.778;2022-12-07T06:09:49;0.90;99.90
19552;DHT22;9921;47.186;9.778;2022-12-07T06:12:16;0.90;99.90
19552;DHT22;9921;47.186;9.778;2022-12-07T06:15:02;0.90;99.90
19552;DHT22;9921;47.186;9.778;2022-12-07T06:17:29;0.90;99.90
19552;DHT22;9921;47.186;9.778;2022-12-07T06:19:56;0.90;99.90
19552;DHT22;9921;47.186;9.778;2022-12-07T06:22:22;0.90;99.90
19552;DHT22;9921;47.186;9.778;2022-12-07T06:24:49;0.90;99.90
19552;DHT22;9921;47.186;9.778;2022-12-07T06:27:16;0.90;99.90
19552;DHT22;9921;47.186;9.778;2022-12-07T06:29:43;0.90;99.90
19552;DHT22;9921;47.186;9.778;2022-12-07T06:32:11;0.90;99.90
19552;DHT22;9921;47.186;9.778;2022-12-07T06:34:38;1.00;99.90
19552;DHT22;9921;47.186;9.778;2022-12-07T06:37:05;1.00;99.90
19552;DHT22;9921;47.186;9.778;2022-12-07T06:39:32;0.90;99.90
19552;DHT22;9921;47.186;9.778;2022-12-07T06:41:59;0.90;99.90
19552;DHT22;9921;47.186;9.778;2022-12-07T06:44:26;0.90;99.90
19552;DHT22;9921;47.186;9.778;2022-12-07T06:46:53;1.00;99.90
19552;DHT22;9921;47.186;9.778;2022-12-07T06:49:21;1.00;99.90
19552;DHT22;9921;47.186;9.778;2022-12-07T06:51:48;0.90;99.90
19552;DHT22;9921;47.186;9.778;2022-12-07T06:54:15;0.90;99.90
19552;DHT22;9921;47.186;9.778;2022-12-07T06:56:42;0.90;99.90
19552;DHT22;9921;47.186;9.778;2022-12-07T06:59:09;0.80;99.90
19552;DHT22;9921;47.186;9.778;2022-12-07T07:01:36;0.90;99.90
19552;DHT22;9921;47.186;9.778;2022-12-07T07:04:03;0.90;99.90
19552;DHT22;9921;47.186;9.778;2022-12-07T07:06:32;0.90;99.90
19552;DHT22;9921;47.186;9.778;2022-12-07T07:08:58;1.00;99.90
19552;DHT22;9921;47.186;9.778;2022-12-07T07:11:25;1.00;99.90
19552;DHT22;9921;47.186;9.778;2022-12-07T07:13:52;1.00;99.90
19552;DHT22;9921;47.186;9.778;2022-12-07T07:16:22;1.00;99.90
19552;DHT22;9921;47.186;9.778;2022-12-07T07:18:49;1.10;99.90
19552;DHT22;9921;47.186;9.778;2022-12-07T07:21:16;1.10;99.90
19552;DHT22;9921;47.186;9.778;2022-12-07T07:23:44;1.10;99.90
19552;DHT22;9921;47.186;9.778;2022-12-07T07:26:11;1.20;99.90
19552;DHT22;9921;47.186;9.778;2022-12-07T07:28:38;1.10;99.90
19552;DHT22;9921;47.186;9.778;2022-12-07T07:31:05;1.10;99.90
19552;DHT22;9921;47.186;9.778;2022-12-07T07:33:32;1.20;99.90
19552;DHT22;9921;47.186;9.778;2022-12-07T07:35:58;1.10;99.90
19552;DHT22;9921;47.186;9.778;2022-12-07T07:38:25;1.20;99.90
19552;DHT22;9921;47.186;9.778;2022-12-07T07:40:54;1.20;99.90
19552;DHT22;9921;47.186;9.778;2022-12-07T07:43:20;1.20;99.90
19552;DHT22;9921;47.186;9.778;2022-12-07T07:45:47;1.30;99.90
19552;DHT22;9921;47.186;9.778;2022-12-07T07:48:14;1.20;99.90
19552;DHT22;9921;47.186;9.778;2022-12-07T07:50:41;1.20;99.90
19552;DHT22;9921;47.186;9.778;2022-12-07T07:53:08;1.30;99.90
19552;DHT22;9921;47.186;9.778;2022-12-07T07:55:35;1.30;99.90
19552;DHT22;9921;47.186;9.778;2022-12-07T07:58:03;1.30;99.90
19552;DHT22;9921;47.186;9.778;2022-12-07T08:00:30;1.30;99.90
19552;DHT22;9921;47.186;9.778;2022-12-07T08:02:56;1.40;99.90
19552;DHT22;9921;47.186;9.778;2022-12-07T08:05:24;1.40;99.90
19552;DHT22;9921;47.186;9.778;2022-12-07T08:07:51;1.30;99.90
19552;DHT22;9921;47.186;9.778;2022-12-07T08:10:18;1.20;99.90
19552;DHT22;9921;47.186;9.778;2022-12-07T08:12:45;1.20;99.90
19552;DHT22;9921;47.186;9.778;2022-12-07T08:15:31;1.30;99.90
19552;DHT22;9921;47.186;9.778;2022-12-07T08:17:57;1.40;99.90
19552;DHT22;9921;47.186;9.778;2022-12-07T08:20:25;1.50;99.90
19552;DHT22;9921;47.186;9.778;2022-12-07T08:22:51;1.50;99.90
19552;DHT22;9921;47.186;9.778;2022-12-07T08:25:19;1.60;99.90
19552;DHT22;9921;47.186;9.778;2022-12-07T08:27:46;1.60;99.90
19552;DHT22;9921;47.186;9.778;2022-12-07T08:30:13;1.70;99.90
19552;DHT22;9921;47.186;9.778;2022-12-07T08:32:41;1.80;99.90
19552;DHT22;9921;47.186;9.778;2022-12-07T08:35:09;1.80;99.90
19552;DHT22;9921;47.186;9.778;2022-12-07T08:37:36;1.80;99.90
19552;DHT22;9921;47.186;9.778;2022-12-07T08:40:04;1.80;99.90
19552;DHT22;9921;47.186;9.778;2022-12-07T08:42:31;1.90;99.90
19552;DHT22;9921;47.186;9.778;2022-12-07T08:45:05;1.90;99.90
19552;DHT22;9921;47.186;9.778;2022-12-07T08:47:32;2.00;99.90
19552;DHT22;9921;47.186;9.778;2022-12-07T08:50:02;2.10;99.90
19552;DHT22;9921;47.186;9.778;2022-12-07T08:52:29;2.20;99.90
19552;DHT22;9921;47.186;9.778;2022-12-07T08:54:57;2.20;99.90
19552;DHT22;9921;47.186;9.778;2022-12-07T08:57:24;2.30;99.90
19552;DHT22;9921;47.186;9.778;2022-12-07T08:59:51;2.40;99.90
19552;DHT22;9921;47.186;9.778;2022-12-07T09:02:18;2.30;99.90
19552;DHT22;9921;47.186;9.778;2022-12-07T09:04:45;2.10;99.90
19552;DHT22;9921;47.186;9.778;2022-12-07T09:07:13;2.10;99.90
19552;DHT22;9921;47.186;9.778;2022-12-07T09:09:40;2.30;99.90
19552;DHT22;9921;47.186;9.778;2022-12-07T09:12:07;2.40;99.90
19552;DHT22;9921;47.186;9.778;2022-12-07T09:14:35;2.50;99.90
19552;DHT22;9921;47.186;9.778;2022-12-07T09:17:06;2.50;99.90
19552;DHT22;9921;47.186;9.778;2022-12-07T09:19:33;2.70;99.90
19552;DHT22;9921;47.186;9.778;2022-12-07T09:22:00;2.70;99.90
19552;DHT22;9921;47.186;9.778;2022-12-07T09:24:28;2.90;99.90
19552;DHT22;9921;47.186;9.778;2022-12-07T09:26:55;3.00;99.90
19552;DHT22;9921;47.186;9.778;2022-12-07T09:29:22;3.20;99.90
19552;DHT22;9921;47.186;9.778;2022-12-07T09:31:49;3.30;99.90
19552;DHT22;9921;47.186;9.778;2022-12-07T09:34:15;3.30;99.90
19552;DHT22;9921;47.186;9.778;2022-12-07T09:36:43;3.30;99.90
19552;DHT22;9921;47.186;9.778;2022-12-07T09:39:10;3.30;99.90
19552;DHT22;9921;47.186;9.778;2022-12-07T09:41:40;3.40;99.90
19552;DHT22;9921;47.186;9.778;2022-12-07T09:44:12;3.60;99.90
19552;DHT22;9921;47.186;9.778;2022-12-07T09:46:41;3.80;99.90
19552;DHT22;9921;47.186;9.778;2022-12-07T09:49:11;4.10;99.90
19552;DHT22;9921;47.186;9.778;2022-12-07T09:51:40;4.50;99.90
19552;DHT22;9921;47.186;9.778;2022-12-07T09:54:09;4.80;99.90
19552;DHT22;9921;47.186;9.778;2022-12-07T09:56:40;5.20;99.90
19552;DHT22;9921;47.186;9.778;2022-12-07T09:59:13;5.50;99.90
19552;DHT22;9921;47.186;9.778;2022-12-07T10:01:43;5.50;99.90
19552;DHT22;9921;47.186;9.778;2022-12-07T10:04:13;5.50;99.90
19552;DHT22;9921;47.186;9.778;2022-12-07T10:06:41;5.40;99.90
19552;DHT22;9921;47.186;9.778;2022-12-07T10:09:10;5.30;99.90
19552;DHT22;9921;47.186;9.778;2022-12-07T10:12:00;5.20;99.90
19552;DHT22;9921;47.186;9.778;2022-12-07T10:14:29;5.30;99.90
19552;DHT22;9921;47.186;9.778;2022-12-07T10:16:57;5.30;99.90
19552;DHT22;9921;47.186;9.778;2022-12-07T10:19:25;5.20;99.90
19552;DHT22;9921;47.186;9.778;2022-12-07T10:22:10;5.30;99.90
19552;DHT22;9921;47.186;9.778;2022-12-07T10:24:38;5.40;99.90
19552;DHT22;9921;47.186;9.778;2022-12-07T10:27:17;5.60;99.90
19552;DHT22;9921;47.186;9.778;2022-12-07T10:29:47;5.50;99.90
19552;DHT22;9921;47.186;9.778;2022-12-07T10:32:30;5.60;99.90
19552;DHT22;9921;47.186;9.778;2022-12-07T10:35:19;5.80;99.90
19552;DHT22;9921;47.186;9.778;2022-12-07T10:37:46;6.00;99.90
19552;DHT22;9921;47.186;9.778;2022-12-07T10:40:26;5.90;99.90
19552;DHT22;9921;47.186;9.778;2022-12-07T10:43:12;6.00;99.90
19552;DHT22;9921;47.186;9.778;2022-12-07T10:46:04;5.70;99.90
19552;DHT22;9921;47.186;9.778;2022-12-07T10:48:39;5.80;99.90
19552;DHT22;9921;47.186;9.778;2022-12-07T10:51:12;5.90;99.90
19552;DHT22;9921;47.186;9.778;2022-12-07T10:53:53;6.10;99.90
19552;DHT22;9921;47.186;9.778;2022-12-07T10:59:42;6.60;99.90
19552;DHT22;9921;47.186;9.778;2022-12-07T11:02:25;6.60;99.90
19552;DHT22;9921;47.186;9.778;2022-12-07T11:05:04;6.70;99.90
19552;DHT22;9921;47.186;9.778;2022-12-07T11:07:41;6.90;99.90
19552;DHT22;9921;47.186;9.778;2022-12-07T11:10:14;7.00;99.90
19552;DHT22;9921;47.186;9.778;2022-12-07T11:12:56;7.00;99.90
19552;DHT22;9921;47.186;9.778;2022-12-07T11:15:31;7.10;99.90
19552;DHT22;9921;47.186;9.778;2022-12-07T11:18:10;7.00;99.90
19552;DHT22;9921;47.186;9.778;2022-12-07T11:20:43;6.90;99.90
19552;DHT22;9921;47.186;9.778;2022-12-07T11:23:18;6.70;99.90
19552;DHT22;9921;47.186;9.778;2022-12-07T11:25:53;6.50;99.90
19552;DHT22;9921;47.186;9.778;2022-12-07T11:28:32;6.40;99.90
19552;DHT22;9921;47.186;9.778;2022-12-07T11:31:13;6.30;99.90
19552;DHT22;9921;47.186;9.778;2022-12-07T11:33:46;6.10;99.90
19552;DHT22;9921;47.186;9.778;2022-12-07T11:36:29;6.20;99.90
19552;DHT22;9921;47.186;9.778;2022-12-07T11:39:00;6.10;99.90
19552;DHT22;9921;47.186;9.778;2022-12-07T11:41:31;6.20;99.90
19552;DHT22;9921;47.186;9.778;2022-12-07T11:44:02;6.10;99.90
19552;DHT22;9921;47.186;9.778;2022-12-07T11:46:43;6.00;99.90
19552;DHT22;9921;47.186;9.778;2022-12-07T11:49:17;6.00;99.90
19552;DHT22;9921;47.186;9.778;2022-12-07T11:51:50;6.00;99.90
19552;DHT22;9921;47.186;9.778;2022-12-07T11:54:23;5.90;99.90
19552;DHT22;9921;47.186;9.778;2022-12-07T11:56:51;5.90;99.90
19552;DHT22;9921;47.186;9.778;2022-12-07T11:59:25;5.70;99.90
19552;DHT22;9921;47.186;9.778;2022-12-07T12:02:00;5.70;99.90
19552;DHT22;9921;47.186;9.778;2022-12-07T12:04:45;5.70;99.90
19552;DHT22;9921;47.186;9.778;2022-12-07T12:07:16;5.70;99.90
19552;DHT22;9921;47.186;9.778;2022-12-07T12:09:48;5.60;99.90
19552;DHT22;9921;47.186;9.778;2022-12-07T12:12:36;5.50;99.90
19552;DHT22;9921;47.186;9.778;2022-12-07T12:15:18;5.50;99.90
19552;DHT22;9921;47.186;9.778;2022-12-07T12:18:19;5.60;99.90
19552;DHT22;9921;47.186;9.778;2022-12-07T12:20:51;5.50;99.90
19552;DHT22;9921;47.186;9.778;2022-12-07T12:23:21;5.50;99.90
19552;DHT22;9921;47.186;9.778;2022-12-07T12:25:51;5.50;99.90
19552;DHT22;9921;47.186;9.778;2022-12-07T12:28:23;5.30;99.90
19552;DHT22;9921;47.186;9.778;2022-12-07T12:31:11;5.40;99.90
19552;DHT22;9921;47.186;9.778;2022-12-07T12:33:43;5.50;99.90
19552;DHT22;9921;47.186;9.778;2022-12-07T12:36:43;5.60;99.90
19552;DHT22;9921;47.186;9.778;2022-12-07T12:39:12;5.70;99.90
19552;DHT22;9921;47.186;9.778;2022-12-07T12:41:59;5.80;99.90
19552;DHT22;9921;47.186;9.778;2022-12-07T12:45:18;5.90;99.90
19552;DHT22;9921;47.186;9.778;2022-12-07T12:50:32;5.50;99.90
19552;DHT22;9921;47.186;9.778;2022-12-07T12:53:11;5.50;99.90
19552;DHT22;9921;47.186;9.778;2022-12-07T12:56:13;5.40;99.90
19552;DHT22;9921;47.186;9.778;2022-12-07T12:58:45;5.40;99.90
19552;DHT22;9921;47.186;9.778;2022-12-07T13:01:41;5.30;99.90
19552;DHT22;9921;47.186;9.778;2022-12-07T13:04:25;5.30;99.90
19552;DHT22;9921;47.186;9.778;2022-12-07T13:06:53;5.40;99.90
19552;DHT22;9921;47.186;9.778;2022-12-07T13:09:22;5.40;99.90
19552;DHT22;9921;47.186;9.778;2022-12-07T13:12:00;5.40;99.90
19552;DHT22;9921;47.186;9.778;2022-12-07T13:14:55;5.30;99.90
19552;DHT22;9921;47.186;9.778;2022-12-07T13:18:00;5.40;99.90
19552;DHT22;9921;47.186;9.778;2022-12-07T13:20:47;5.40;99.90
19552;DHT22;9921;47.186;9.778;2022-12-07T13:23:18;5.40;99.90
19552;DHT22;9921;47.186;9.778;2022-12-07T13:25:51;5.50;99.90
19552;DHT22;9921;47.186;9.778;2022-12-07T13:28:21;5.50;99.90
19552;DHT22;9921;47.186;9.778;2022-12-07T13:33:50;5.40;99.90
19552;DHT22;9921;47.186;9.778;2022-12-07T13:36:22;5.40;99.90
19552;DHT22;9921;47.186;9.778;2022-12-07T13:38:54;5.40;99.90
19552;DHT22;9921;47.186;9.778;2022-12-07T13:41:21;5.30;99.90
19552;DHT22;9921;47.186;9.778;2022-12-07T13:43:52;5.30;99.90
19552;DHT22;9921;47.186;9.778;2022-12-07T13:46:24;5.30;99.90
19552;DHT22;9921;47.186;9.778;2022-12-07T13:48:52;5.30;99.90
19552;DHT22;9921;47.186;9.778;2022-12-07T13:51:23;5.30;99.90
19552;DHT22;9921;47.186;9.778;2022-12-07T13:53:54;5.30;99.90
19552;DHT22;9921;47.186;9.778;2022-12-07T13:56:33;5.20;99.90
19552;DHT22;9921;47.186;9.778;2022-12-07T13:59:00;5.20;99.90
19552;DHT22;9921;47.186;9.778;2022-12-07T14:01:28;5.10;99.90
19552;DHT22;9921;47.186;9.778;2022-12-07T14:04:17;5.00;99.90
19552;DHT22;9921;47.186;9.778;2022-12-07T14:06:48;4.90;99.90
19552;DHT22;9921;47.186;9.778;2022-12-07T14:09:22;4.80;99.90
19552;DHT22;9921;47.186;9.778;2022-12-07T14:11:50;4.60;99.90
19552;DHT22;9921;47.186;9.778;2022-12-07T14:14:20;4.50;99.90
19552;DHT22;9921;47.186;9.778;2022-12-07T14:17:00;4.40;99.90
19552;DHT22;9921;47.186;9.778;2022-12-07T14:19:48;4.40;99.90
19552;DHT22;9921;47.186;9.778;2022-12-07T14:22:28;4.50;99.90
19552;DHT22;9921;47.186;9.778;2022-12-07T14:25:01;4.40;99.90
19552;DHT22;9921;47.186;9.778;2022-12-07T14:27:36;4.40;99.90
19552;DHT22;9921;47.186;9.778;2022-12-07T14:30:04;4.40;99.90
19552;DHT22;9921;47.186;9.778;2022-12-07T14:32:31;4.30;99.90
19552;DHT22;9921;47.186;9.778;2022-12-07T14:35:03;4.30;99.90
19552;DHT22;9921;47.186;9.778;2022-12-07T14:37:36;4.30;99.90
19552;DHT22;9921;47.186;9.778;2022-12-07T14:40:05;4.30;99.90
19552;DHT22;9921;47.186;9.778;2022-12-07T14:42:33;4.30;99.90
19552;DHT22;9921;47.186;9.778;2022-12-07T14:45:00;4.30;99.90
19552;DHT22;9921;47.186;9.778;2022-12-07T14:47:27;4.20;99.90
19552;DHT22;9921;47.186;9.778;2022-12-07T14:49:54;4.20;99.90
19552;DHT22;9921;47.186;9.778;2022-12-07T14:52:24;4.20;99.90
19552;DHT22;9921;47.186;9.778;2022-12-07T14:54:53;4.10;99.90
19552;DHT22;9921;47.186;9.778;2022-12-07T14:57:22;4.10;99.90
19552;DHT22;9921;47.186;9.778;2022-12-07T14:59:49;4.10;99.90
19552;DHT22;9921;47.186;9.778;2022-12-07T15:02:17;4.10;99.90
19552;DHT22;9921;47.186;9.778;2022-12-07T15:04:43;4.10;99.90
19552;DHT22;9921;47.186;9.778;2022-12-07T15:07:15;4.00;99.90
19552;DHT22;9921;47.186;9.778;2022-12-07T15:09:46;3.90;99.90
19552;DHT22;9921;47.186;9.778;2022-12-07T15:12:12;3.90;99.90
19552;DHT22;9921;47.186;9.778;2022-12-07T15:14:41;3.90;99.90
19552;DHT22;9921;47.186;9.778;2022-12-07T15:17:10;3.80;99.90
19552;DHT22;9921;47.186;9.778;2022-12-07T15:19:37;3.80;99.90
19552;DHT22;9921;47.186;9.778;2022-12-07T15:22:04;3.80;99.90
19552;DHT22;9921;47.186;9.778;2022-12-07T15:24:30;3.70;99.90
19552;DHT22;9921;47.186;9.778;2022-12-07T15:26:57;3.60;99.90
19552;DHT22;9921;47.186;9.778;2022-12-07T15:29:24;3.50;99.90
19552;DHT22;9921;47.186;9.778;2022-12-07T15:31:52;3.40;99.90
19552;DHT22;9921;47.186;9.778;2022-12-07T15:34:19;3.40;99.90
19552;DHT22;9921;47.186;9.778;2022-12-07T15:36:46;3.30;99.90
19552;DHT22;9921;47.186;9.778;2022-12-07T15:39:13;3.30;99.90
19552;DHT22;9921;47.186;9.778;2022-12-07T15:41:40;3.30;99.90
19552;DHT22;9921;47.186;9.778;2022-12-07T15:44:09;3.30;99.90
19552;DHT22;9921;47.186;9.778;2022-12-07T15:46:55;3.30;99.90
19552;DHT22;9921;47.186;9.778;2022-12-07T15:49:22;3.30;99.90
19552;DHT22;9921;47.186;9.778;2022-12-07T15:51:49;3.30;99.90
19552;DHT22;9921;47.186;9.778;2022-12-07T15:54:19;3.30;99.90
19552;DHT22;9921;47.186;9.778;2022-12-07T15:56:46;3.30;99.90
19552;DHT22;9921;47.186;9.778;2022-12-07T15:59:13;3.40;99.90
19552;DHT22;9921;47.186;9.778;2022-12-07T16:01:40;3.40;99.90
19552;DHT22;9921;47.186;9.778;2022-12-07T16:04:08;3.30;99.90
19552;DHT22;9921;47.186;9.778;2022-12-07T16:06:35;3.30;99.90
19552;DHT22;9921;47.186;9.778;2022-12-07T16:09:03;3.20;99.90
19552;DHT22;9921;47.186;9.778;2022-12-07T16:11:30;3.20;99.90
19552;DHT22;9921;47.186;9.778;2022-12-07T16:13:57;3.20;99.90
19552;DHT22;9921;47.186;9.778;2022-12-07T16:16:24;3.20;99.90
19552;DHT22;9921;47.186;9.778;2022-12-07T16:18:51;3.20;99.90
19552;DHT22;9921;47.186;9.778;2022-12-07T16:21:20;3.20;99.90
19552;DHT22;9921;47.186;9.778;2022-12-07T16:23:46;3.30;99.90
19552;DHT22;9921;47.186;9.778;2022-12-07T16:26:16;3.30;99.90
19552;DHT22;9921;47.186;9.778;2022-12-07T16:28:43;3.40;99.90
19552;DHT22;9921;47.186;9.778;2022-12-07T16:31:12;3.30;99.90